Time;durP1;ratioP1;P1;durP2;ratioP2;P2;SDS_P1;SDS_P2;PMS_P1;PMS_P2;Temp;Humidity;BMP_temperature;BMP_pressure;BME280_temperature;BME280_humidity;BME280_pressure;Samples;Min_cycle;Max_cycle;Signal;HPM_P1;HPM_P2
2023/06/08 00:01:07;;;;;;;3.77;3.30;;;;;;;;;;5118597;28;20208;-69
2023/06/08 00:03:38;;;;;;;4.30;2.33;;;;;;;;;;5118477;28;20209;-71
2023/06/08 00:06:08;;;;;;;5.63;3.00;;;;;;;;;;5118237;28;20270;-72
2023/06/08 00:08:36;;;;;;;3.30;2.77;;;;;;;;;;5118301;28;20215;-71
2023/06/08 00:11:04;;;;;;;4.43;2.83;;;;;;;;;;5118105;28;20234;-71
2023/06/08 00:13:34;;;;;;;3.27;2.60;;;;;;;;;;5117941;28;20217;-71
2023/06/08 00:16:03;;;;;;;3.03;2.83;;;;;;;;;;5118336;28;20256;-71
2023/06/08 00:18:31;;;;;;;4.20;3.20;;;;;;;;;;5118471;28;20203;-71
2023/06/08 00:21:01;;;;;;;3.50;2.57;;;;;;;;;;5118352;28;20291;-70
2023/06/08 00:23:31;;;;;;;3.00;2.80;;;;;;;;;;5118003;28;20229;-71
2023/06/08 00:26:00;;;;;;;3.97;2.80;;;;;;;;;;5117864;28;20297;-72
2023/06/08 00:28:28;;;;;;;2.97;2.67;;;;;;;;;;5118010;28;20641;-71
2023/06/08 00:30:56;;;;;;;5.03;3.00;;;;;;;;;;5118132;28;20262;-71
2023/06/08 00:33:24;;;;;;;3.00;2.80;;;;;;;;;;5117968;28;20220;-69
2023/06/08 00:35:54;;;;;;;5.43;3.03;;;;;;;;;;5118064;28;20267;-71
2023/06/08 00:38:22;;;;;;;6.00;2.70;;;;;;;;;;5118133;28;20200;-71
2023/06/08 00:40:52;;;;;;;4.13;3.23;;;;;;;;;;5117856;28;20208;-71
2023/06/08 00:43:20;;;;;;;3.23;2.93;;;;;;;;;;5118132;28;20209;-71
2023/06/08 00:45:48;;;;;;;2.83;2.63;;;;;;;;;;5117770;28;20269;-71
2023/06/08 00:48:16;;;;;;;2.70;2.50;;;;;;;;;;5118162;28;20291;-71
2023/06/08 00:50:45;;;;;;;3.70;3.10;;;;;;;;;;5118346;28;20225;-71
2023/06/08 00:53:14;;;;;;;2.87;2.67;;;;;;;;;;5117579;28;20770;-71
2023/06/08 00:55:43;;;;;;;3.90;2.70;;;;;;;;;;5117413;28;20214;-71
2023/06/08 00:58:13;;;;;;;2.50;2.20;;;;;;;;;;5118151;28;20221;-70
2023/06/08 01:00:41;;;;;;;2.77;2.50;;;;;;;;;;5117804;28;20671;-70
2023/06/08 01:03:10;;;;;;;4.80;2.77;;;;;;;;;;5117800;28;20628;-71
2023/06/08 01:05:38;;;;;;;2.97;2.30;;;;;;;;;;5117891;28;20233;-72
2023/06/08 01:08:11;;;;;;;4.20;2.57;;;;;;;;;;5117585;28;20274;-71
2023/06/08 01:10:43;;;;;;;2.70;2.50;;;;;;;;;;5104723;28;20221;-71
2023/06/08 01:13:14;;;;;;;3.17;2.87;;;;;;;;;;5117958;28;20229;-71
2023/06/08 01:15:45;;;;;;;2.67;2.47;;;;;;;;;;5117889;28;20227;-70
2023/06/08 01:18:17;;;;;;;3.10;2.80;;;;;;;;;;5117853;28;20662;-71
2023/06/08 01:20:49;;;;;;;3.00;2.30;;;;;;;;;;5117862;28;20204;-71
2023/06/08 01:23:26;;;;;;;2.83;2.63;;;;;;;;;;5117741;28;20213;-71
2023/06/08 01:25:57;;;;;;;2.90;2.70;;;;;;;;;;5119308;28;20219;-70
2023/06/08 01:28:28;;;;;;;2.60;2.40;;;;;;;;;;5108282;28;20207;-71
2023/06/08 01:30:56;;;;;;;3.30;2.40;;;;;;;;;;5121257;27;20235;-70
2023/06/08 01:33:26;;;;;;;5.67;2.73;;;;;;;;;;5121052;28;20240;-73
2023/06/08 01:35:57;;;;;;;2.77;2.57;;;;;;;;;;5121177;28;20262;-71
2023/06/08 01:38:30;;;;;;;2.60;2.40;;;;;;;;;;5121192;28;20205;-72
2023/06/08 01:41:05;;;;;;;3.13;2.83;;;;;;;;;;5120861;28;20212;-71
2023/06/08 01:43:34;;;;;;;3.40;3.20;;;;;;;;;;5120915;28;20671;-71
2023/06/08 01:46:03;;;;;;;5.73;3.00;;;;;;;;;;5120970;28;20227;-71
2023/06/08 01:48:32;;;;;;;4.17;3.03;;;;;;;;;;5121101;28;20211;-72
2023/06/08 01:51:00;;;;;;;3.23;2.93;;;;;;;;;;5120860;28;20230;-70
2023/06/08 01:53:29;;;;;;;3.27;2.97;;;;;;;;;;5120635;28;20242;-72
2023/06/08 01:55:57;;;;;;;3.83;2.70;;;;;;;;;;5120258;28;20281;-72
2023/06/08 01:58:26;;;;;;;3.43;2.87;;;;;;;;;;5120546;28;20671;-71
2023/06/08 02:00:55;;;;;;;2.93;2.73;;;;;;;;;;5120750;28;20212;-71
2023/06/08 02:03:23;;;;;;;2.87;2.67;;;;;;;;;;5120717;28;20258;-72
2023/06/08 02:05:51;;;;;;;3.10;2.70;;;;;;;;;;5120677;28;20256;-72
2023/06/08 02:08:20;;;;;;;3.57;2.53;;;;;;;;;;5120228;28;20653;-72
2023/06/08 02:10:48;;;;;;;2.67;2.47;;;;;;;;;;5119977;28;20211;-72
2023/06/08 02:13:16;;;;;;;3.10;2.90;;;;;;;;;;5120279;28;20206;-73
2023/06/08 02:15:45;;;;;;;4.00;2.90;;;;;;;;;;5120192;28;20229;-72
2023/06/08 02:18:14;;;;;;;4.90;2.70;;;;;;;;;;5120155;28;20225;-72
2023/06/08 02:20:42;;;;;;;2.80;2.60;;;;;;;;;;5120174;28;20210;-73
2023/06/08 02:23:10;;;;;;;2.80;2.60;;;;;;;;;;5119994;28;20209;-72
2023/06/08 02:25:39;;;;;;;4.13;3.10;;;;;;;;;;5119717;28;20235;-71
2023/06/08 02:28:07;;;;;;;2.73;2.53;;;;;;;;;;5119996;28;20541;-71
2023/06/08 02:30:35;;;;;;;3.50;2.50;;;;;;;;;;5120002;27;20235;-71
2023/06/08 02:33:06;;;;;;;3.77;2.87;;;;;;;;;;5119808;28;20728;-71
2023/06/08 02:35:34;;;;;;;3.97;3.00;;;;;;;;;;5119650;28;20224;-72
2023/06/08 02:38:02;;;;;;;5.20;2.83;;;;;;;;;;5119839;28;20294;-73
2023/06/08 02:40:30;;;;;;;3.83;3.27;;;;;;;;;;5119491;28;20200;-71
2023/06/08 02:42:59;;;;;;;5.93;3.27;;;;;;;;;;5119888;28;20238;-69
2023/06/08 02:45:27;;;;;;;3.80;3.40;;;;;;;;;;5120821;27;20626;-68
2023/06/08 02:47:57;;;;;;;6.73;3.30;;;;;;;;;;5119307;27;20671;-68
2023/06/08 02:50:27;;;;;;;4.43;3.50;;;;;;;;;;5122305;27;20230;-69
2023/06/08 02:52:55;;;;;;;4.33;3.60;;;;;;;;;;5118747;28;20263;-69
2023/06/08 02:55:23;;;;;;;5.47;3.57;;;;;;;;;;5119931;27;20226;-70
2023/06/08 02:57:52;;;;;;;6.37;4.00;;;;;;;;;;5120703;27;20195;-68
2023/06/08 03:00:21;;;;;;;5.33;3.63;;;;;;;;;;5119144;27;20205;-69
2023/06/08 03:02:49;;;;;;;6.93;3.80;;;;;;;;;;5121926;27;20195;-69
2023/06/08 03:05:21;;;;;;;6.53;3.93;;;;;;;;;;5120066;27;20228;-70
2023/06/08 03:07:52;;;;;;;5.10;3.60;;;;;;;;;;5118784;27;20205;-70
2023/06/08 03:10:21;;;;;;;5.57;3.70;;;;;;;;;;5121207;27;20198;-70
2023/06/08 03:12:49;;;;;;;4.20;3.60;;;;;;;;;;5119289;28;20220;-70
2023/06/08 03:15:22;;;;;;;4.27;3.47;;;;;;;;;;5119612;27;20221;-70
2023/06/08 03:17:51;;;;;;;5.10;3.80;;;;;;;;;;5117848;28;20201;-70
2023/06/08 03:20:20;;;;;;;5.13;3.40;;;;;;;;;;5119137;27;20197;-70
2023/06/08 03:22:50;;;;;;;4.17;3.30;;;;;;;;;;5121664;27;20204;-70
2023/06/08 03:25:21;;;;;;;6.73;3.23;;;;;;;;;;5118367;28;20319;-70
2023/06/08 03:27:49;;;;;;;5.10;3.20;;;;;;;;;;5119233;28;20199;-70
2023/06/08 03:30:17;;;;;;;3.27;3.00;;;;;;;;;;5120316;27;20216;-71
2023/06/08 03:32:48;;;;;;;3.23;2.93;;;;;;;;;;5117729;27;20633;-70
2023/06/08 03:35:17;;;;;;;4.97;3.17;;;;;;;;;;5121199;27;20276;-71
2023/06/08 03:37:45;;;;;;;3.57;3.20;;;;;;;;;;5116861;27;20254;-70
2023/06/08 03:40:15;;;;;;;4.50;3.03;;;;;;;;;;5118042;28;20201;-70
2023/06/08 03:42:44;;;;;;;4.73;3.13;;;;;;;;;;5119141;27;20219;-71
2023/06/08 03:45:12;;;;;;;3.27;3.00;;;;;;;;;;5118033;28;20276;-70
2023/06/08 03:47:40;;;;;;;4.20;3.10;;;;;;;;;;5120326;27;20202;-70
2023/06/08 03:50:09;;;;;;;2.97;2.73;;;;;;;;;;5118479;28;20201;-70
2023/06/08 03:52:38;;;;;;;3.53;2.73;;;;;;;;;;5118311;28;20222;-69
2023/06/08 03:55:07;;;;;;;3.63;2.90;;;;;;;;;;5115107;28;20233;-70
2023/06/08 03:57:37;;;;;;;4.03;3.03;;;;;;;;;;5120438;27;20236;-70
2023/06/08 04:00:07;;;;;;;3.50;3.13;;;;;;;;;;5115595;28;20235;-70
2023/06/08 04:02:36;;;;;;;3.27;2.97;;;;;;;;;;5118547;28;20199;-70
2023/06/08 04:05:06;;;;;;;4.43;2.90;;;;;;;;;;5116294;28;20233;-70
2023/06/08 04:07:38;;;;;;;3.40;3.13;;;;;;;;;;5119798;27;20194;-70
2023/06/08 04:10:07;;;;;;;3.30;3.00;;;;;;;;;;5120928;28;20210;-70
2023/06/08 04:12:35;;;;;;;3.60;3.10;;;;;;;;;;5138373;27;20230;-71
2023/06/08 04:15:05;;;;;;;4.73;3.00;;;;;;;;;;5138628;27;20205;-70
2023/06/08 04:17:34;;;;;;;5.00;3.17;;;;;;;;;;5138703;27;20238;-70
2023/06/08 04:20:04;;;;;;;3.93;3.23;;;;;;;;;;5138414;27;20613;-67
2023/06/08 04:22:32;;;;;;;4.57;3.20;;;;;;;;;;5138522;27;20572;-68
2023/06/08 04:25:01;;;;;;;4.53;3.20;;;;;;;;;;5138139;27;20235;-69
2023/06/08 04:27:29;;;;;;;7.73;3.23;;;;;;;;;;5121424;27;20271;-70
2023/06/08 04:29:57;;;;;;;4.40;3.93;;;;;;;;;;5118275;28;20239;-70
2023/06/08 04:32:26;;;;;;;4.10;3.50;;;;;;;;;;5117884;28;20277;-70
2023/06/08 04:34:55;;;;;;;3.73;3.07;;;;;;;;;;5118190;28;20204;-70
2023/06/08 04:37:23;;;;;;;5.07;3.30;;;;;;;;;;5117716;28;20214;-70
2023/06/08 04:39:51;;;;;;;4.43;3.37;;;;;;;;;;5117769;28;20671;-70
2023/06/08 04:42:20;;;;;;;3.47;3.10;;;;;;;;;;5117757;28;20599;-68
2023/06/08 04:44:49;;;;;;;6.33;3.07;;;;;;;;;;5117955;28;20207;-70
2023/06/08 04:47:17;;;;;;;4.20;3.47;;;;;;;;;;5117800;28;20674;-70
2023/06/08 04:49:47;;;;;;;4.40;4.00;;;;;;;;;;5117922;28;20717;-70
2023/06/08 04:52:16;;;;;;;7.10;4.10;;;;;;;;;;5117692;28;20209;-70
2023/06/08 04:54:46;;;;;;;8.13;4.57;;;;;;;;;;5117710;28;20232;-70
2023/06/08 04:57:15;;;;;;;6.73;4.43;;;;;;;;;;5117322;28;20649;-71
2023/06/08 04:59:43;;;;;;;7.10;4.63;;;;;;;;;;5119695;28;20303;-70
2023/06/08 05:02:11;;;;;;;4.53;4.10;;;;;;;;;;5121666;28;20279;-70
2023/06/08 05:04:39;;;;;;;7.27;4.03;;;;;;;;;;5121909;28;20212;-70
2023/06/08 05:07:09;;;;;;;6.07;3.70;;;;;;;;;;5121745;27;20227;-70
2023/06/08 05:09:37;;;;;;;4.13;3.20;;;;;;;;;;5121546;28;20212;-70
2023/06/08 05:12:08;;;;;;;3.67;3.33;;;;;;;;;;5121232;27;20660;-71
2023/06/08 05:14:37;;;;;;;4.57;3.83;;;;;;;;;;5121257;28;20232;-70
2023/06/08 05:17:05;;;;;;;6.27;4.00;;;;;;;;;;5121611;28;20229;-71
2023/06/08 05:19:33;;;;;;;6.90;4.13;;;;;;;;;;5121244;28;20201;-70
2023/06/08 05:22:01;;;;;;;4.73;3.40;;;;;;;;;;5121417;27;20286;-70
2023/06/08 05:24:31;;;;;;;4.73;3.73;;;;;;;;;;5121812;27;20556;-68
2023/06/08 05:26:59;;;;;;;6.63;3.93;;;;;;;;;;5128595;27;20243;-68
2023/06/08 05:29:27;;;;;;;6.80;4.13;;;;;;;;;;5121330;28;20220;-70
2023/06/08 05:31:55;;;;;;;4.00;3.30;;;;;;;;;;5121187;28;20645;-68
2023/06/08 05:34:24;;;;;;;6.30;3.57;;;;;;;;;;5121163;28;20220;-69
2023/06/08 05:36:52;;;;;;;6.13;3.83;;;;;;;;;;5120621;28;20221;-70
2023/06/08 05:39:20;;;;;;;4.20;3.80;;;;;;;;;;5120630;28;20227;-70
2023/06/08 05:41:50;;;;;;;7.63;3.80;;;;;;;;;;5120962;28;20217;-69
2023/06/08 05:44:18;;;;;;;4.80;4.13;;;;;;;;;;5121006;28;20253;-70
2023/06/08 05:46:46;;;;;;;5.87;3.73;;;;;;;;;;5121028;28;20226;-70
2023/06/08 05:49:14;;;;;;;3.67;3.27;;;;;;;;;;5120974;28;20205;-69
2023/06/08 05:51:42;;;;;;;4.73;3.30;;;;;;;;;;5121077;28;20230;-70
2023/06/08 05:54:11;;;;;;;3.90;3.17;;;;;;;;;;5120298;28;20239;-70
2023/06/08 05:56:39;;;;;;;5.87;3.70;;;;;;;;;;5120521;28;20224;-69
2023/06/08 05:59:08;;;;;;;3.50;3.20;;;;;;;;;;5120836;28;20209;-69
2023/06/08 06:01:37;;;;;;;4.43;3.23;;;;;;;;;;5120431;28;20200;-70
2023/06/08 06:04:05;;;;;;;6.43;4.30;;;;;;;;;;5120333;28;20228;-70
2023/06/08 06:06:42;;;;;;;6.83;3.67;;;;;;;;;;5120172;28;20719;-70
2023/06/08 06:09:11;;;;;;;4.10;3.43;;;;;;;;;;5120576;28;20291;-70
2023/06/08 06:11:39;;;;;;;4.23;3.63;;;;;;;;;;5119286;28;20220;-69
2023/06/08 06:14:09;;;;;;;3.93;3.63;;;;;;;;;;5120476;28;20269;-70
2023/06/08 06:16:37;;;;;;;6.50;3.67;;;;;;;;;;5120378;28;20236;-70
2023/06/08 06:19:05;;;;;;;6.20;3.80;;;;;;;;;;5120436;28;20206;-70
2023/06/08 06:21:33;;;;;;;5.63;4.07;;;;;;;;;;5120411;28;20214;-70
2023/06/08 06:24:02;;;;;;;5.17;3.77;;;;;;;;;;5119983;28;20684;-70
2023/06/08 06:26:31;;;;;;;6.90;3.73;;;;;;;;;;5119762;28;20231;-70
2023/06/08 06:28:59;;;;;;;4.27;3.33;;;;;;;;;;5120057;28;20207;-70
2023/06/08 06:31:30;;;;;;;6.80;3.83;;;;;;;;;;5120086;28;20207;-69
2023/06/08 06:33:59;;;;;;;8.37;3.67;;;;;;;;;;5120018;28;20222;-70
2023/06/08 06:36:27;;;;;;;6.73;4.27;;;;;;;;;;5119504;28;20226;-70
2023/06/08 06:38:55;;;;;;;5.63;3.67;;;;;;;;;;5119601;28;20218;-70
2023/06/08 06:41:25;;;;;;;5.27;3.70;;;;;;;;;;5119663;28;20222;-70
2023/06/08 06:43:53;;;;;;;6.53;3.53;;;;;;;;;;5117568;27;20221;-70
2023/06/08 06:46:21;;;;;;;4.70;3.43;;;;;;;;;;5120476;27;20224;-69
2023/06/08 06:48:51;;;;;;;5.83;3.87;;;;;;;;;;5116840;27;20201;-69
2023/06/08 06:51:19;;;;;;;6.17;3.90;;;;;;;;;;5120215;27;20305;-69
2023/06/08 06:53:48;;;;;;;4.43;3.63;;;;;;;;;;5120741;27;20284;-70
2023/06/08 06:56:16;;;;;;;6.50;3.83;;;;;;;;;;5117685;28;20216;-65
2023/06/08 06:58:44;;;;;;;4.17;3.67;;;;;;;;;;5120042;27;20207;-65
2023/06/08 07:01:15;;;;;;;4.50;3.50;;;;;;;;;;5118018;27;20248;-65
2023/06/08 07:03:44;;;;;;;6.27;3.90;;;;;;;;;;5121118;27;20191;-65
2023/06/08 07:06:14;;;;;;;5.50;3.50;;;;;;;;;;5122970;27;20304;-64
2023/06/08 07:08:42;;;;;;;6.37;3.80;;;;;;;;;;5119492;28;20196;-68
2023/06/08 07:11:11;;;;;;;4.10;3.80;;;;;;;;;;5119527;27;20573;-69
2023/06/08 07:13:39;;;;;;;5.57;4.10;;;;;;;;;;5138949;27;20236;-70
2023/06/08 07:16:07;;;;;;;3.83;3.50;;;;;;;;;;5139882;27;20227;-69
2023/06/08 07:18:37;;;;;;;5.30;4.27;;;;;;;;;;5139533;27;20207;-69
2023/06/08 07:21:05;;;;;;;3.43;3.13;;;;;;;;;;5139405;27;20642;-69
2023/06/08 07:23:35;;;;;;;4.43;3.47;;;;;;;;;;5138452;27;20211;-69
2023/06/08 07:26:23;;;;;;;6.10;4.20;;;;;;;;;;5130394;27;20270;-66
2023/06/08 07:28:58;;;;;;;5.30;3.70;;;;;;;;;;5131068;27;20228;-67
2023/06/08 07:31:26;;;;;;;3.87;3.20;;;;;;;;;;5120429;27;20660;-66
2023/06/08 07:33:55;;;;;;;4.53;4.07;;;;;;;;;;5121573;27;20273;-66
2023/06/08 07:36:24;;;;;;;4.97;3.60;;;;;;;;;;5113679;27;20217;-66
2023/06/08 07:38:56;;;;;;;5.20;3.50;;;;;;;;;;5118803;28;20215;-66
2023/06/08 07:41:26;;;;;;;4.40;3.90;;;;;;;;;;5113424;28;20197;-66
2023/06/08 07:43:55;;;;;;;3.73;3.43;;;;;;;;;;5108096;27;20602;-67
2023/06/08 07:46:23;;;;;;;3.83;3.53;;;;;;;;;;5101788;28;20701;-67
2023/06/08 07:48:52;;;;;;;3.70;3.40;;;;;;;;;;5115173;28;20225;-63
2023/06/08 07:51:20;;;;;;;5.60;3.63;;;;;;;;;;5118534;28;20201;-63
2023/06/08 07:53:49;;;;;;;4.47;3.70;;;;;;;;;;5117783;28;20593;-64
2023/06/08 07:56:19;;;;;;;3.93;3.50;;;;;;;;;;5118021;28;20232;-63
2023/06/08 07:58:48;;;;;;;7.60;3.50;;;;;;;;;;5116789;28;20202;-63
2023/06/08 08:01:16;;;;;;;5.60;3.27;;;;;;;;;;5125037;27;20198;-64
2023/06/08 08:03:44;;;;;;;4.20;3.40;;;;;;;;;;5125150;27;20234;-64
2023/06/08 08:06:14;;;;;;;4.57;3.40;;;;;;;;;;5121873;27;20219;-63
2023/06/08 08:08:43;;;;;;;3.37;3.07;;;;;;;;;;5123082;27;20193;-64
2023/06/08 08:11:11;;;;;;;4.20;3.40;;;;;;;;;;5129520;27;20565;-64
2023/06/08 08:13:40;;;;;;;3.90;3.30;;;;;;;;;;5135791;27;20311;-64
2023/06/08 08:16:09;;;;;;;4.10;3.40;;;;;;;;;;5114079;28;20634;-62
2023/06/08 08:18:37;;;;;;;3.43;3.17;;;;;;;;;;5118185;27;20240;-63
2023/06/08 08:21:05;;;;;;;6.87;3.17;;;;;;;;;;5118791;28;20204;-64
2023/06/08 08:23:34;;;;;;;4.00;3.67;;;;;;;;;;5117188;28;20202;-64
2023/06/08 08:26:02;;;;;;;3.80;3.40;;;;;;;;;;5133285;27;20712;-62
2023/06/08 08:28:30;;;;;;;4.37;3.50;;;;;;;;;;5117625;28;20305;-64
2023/06/08 08:31:00;;;;;;;4.73;3.50;;;;;;;;;;5106872;28;20222;-63
2023/06/08 08:33:28;;;;;;;3.83;3.20;;;;;;;;;;5119144;28;20207;-64
2023/06/08 08:35:57;;;;;;;4.47;4.07;;;;;;;;;;5123398;27;20303;-62
2023/06/08 08:38:25;;;;;;;4.63;3.87;;;;;;;;;;5121618;28;20225;-62
2023/06/08 08:41:01;;;;;;;4.10;3.70;;;;;;;;;;5139357;27;20259;-62
2023/06/08 08:43:35;;;;;;;4.23;3.80;;;;;;;;;;5142497;27;20245;-64
2023/06/08 08:46:08;;;;;;;4.20;3.80;;;;;;;;;;5142347;27;20306;-64
2023/06/08 08:48:42;;;;;;;4.97;4.40;;;;;;;;;;5142714;27;20206;-63
2023/06/08 08:51:14;;;;;;;9.07;5.10;;;;;;;;;;5127474;27;20204;-64
2023/06/08 08:53:45;;;;;;;6.70;4.60;;;;;;;;;;5129746;27;20247;-64
2023/06/08 08:56:21;;;;;;;4.43;4.03;;;;;;;;;;5131000;27;20226;-64
2023/06/08 08:58:50;;;;;;;4.43;4.03;;;;;;;;;;5126563;27;20244;-64
2023/06/08 09:01:20;;;;;;;4.50;4.10;;;;;;;;;;5123457;27;20567;-65
2023/06/08 09:03:48;;;;;;;4.17;3.77;;;;;;;;;;5119521;27;20203;-63
2023/06/08 09:06:17;;;;;;;5.80;3.97;;;;;;;;;;5120837;28;20283;-65
2023/06/08 09:08:45;;;;;;;4.90;3.87;;;;;;;;;;5121086;28;20209;-63
2023/06/08 09:11:13;;;;;;;3.70;3.40;;;;;;;;;;5121325;28;20313;-65
2023/06/08 09:13:42;;;;;;;4.43;3.40;;;;;;;;;;5113155;28;20211;-65
2023/06/08 09:16:14;;;;;;;4.23;3.40;;;;;;;;;;5121191;28;20322;-65
2023/06/08 09:18:45;;;;;;;3.70;3.40;;;;;;;;;;5119511;27;20212;-65
2023/06/08 09:21:21;;;;;;;4.20;3.80;;;;;;;;;;5141946;27;20297;-63
2023/06/08 09:24:11;;;;;;;4.97;3.63;;;;;;;;;;5141915;27;20348;-65
2023/06/08 09:26:45;;;;;;;4.60;3.30;;;;;;;;;;5127144;27;20303;-63
2023/06/08 09:29:30;;;;;;;4.13;3.43;;;;;;;;;;5119116;28;20212;-65
2023/06/08 09:31:58;;;;;;;3.93;3.30;;;;;;;;;;5121343;28;20205;-64
2023/06/08 09:34:33;;;;;;;6.00;3.97;;;;;;;;;;5120752;28;20679;-62
2023/06/08 09:37:08;;;;;;;6.60;3.20;;;;;;;;;;5120963;28;20305;-65
2023/06/08 09:39:40;;;;;;;6.33;3.67;;;;;;;;;;5120489;28;20238;-65
2023/06/08 09:42:09;;;;;;;3.63;3.23;;;;;;;;;;5120844;28;20218;-64
2023/06/08 09:44:37;;;;;;;5.10;3.30;;;;;;;;;;5120952;28;20207;-65
2023/06/08 09:47:22;;;;;;;3.67;3.17;;;;;;;;;;5110619;28;20245;-63
2023/06/08 09:49:53;;;;;;;6.67;2.93;;;;;;;;;;5120872;28;20241;-63
2023/06/08 09:52:22;;;;;;;6.03;3.20;;;;;;;;;;5121270;27;20206;-64
2023/06/08 09:54:51;;;;;;;3.53;2.93;;;;;;;;;;5118352;27;20199;-63
2023/06/08 09:57:20;;;;;;;5.63;3.10;;;;;;;;;;5119333;28;20681;-63
2023/06/08 09:59:54;;;;;;;4.33;3.43;;;;;;;;;;5120700;28;20203;-64
2023/06/08 10:02:24;;;;;;;3.67;3.27;;;;;;;;;;5120359;28;20275;-64
2023/06/08 10:04:56;;;;;;;4.57;3.40;;;;;;;;;;5118030;28;20200;-63
2023/06/08 10:07:29;;;;;;;4.93;3.40;;;;;;;;;;5120195;28;20294;-62
2023/06/08 10:10:00;;;;;;;3.20;2.90;;;;;;;;;;5120157;28;20218;-64
2023/06/08 10:12:28;;;;;;;5.53;3.50;;;;;;;;;;5120398;28;20243;-63
2023/06/08 10:14:57;;;;;;;3.90;3.50;;;;;;;;;;5119933;28;20560;-63
2023/06/08 10:17:25;;;;;;;4.20;3.07;;;;;;;;;;5120179;28;20270;-63
2023/06/08 10:19:56;;;;;;;4.23;3.20;;;;;;;;;;5120061;28;20240;-63
2023/06/08 10:22:24;;;;;;;4.27;3.60;;;;;;;;;;5120147;28;20204;-63
2023/06/08 10:24:53;;;;;;;3.47;3.17;;;;;;;;;;5119765;28;20217;-63
2023/06/08 10:27:37;;;;;;;4.37;3.53;;;;;;;;;;5120127;28;20563;-65
2023/06/08 10:30:06;;;;;;;3.27;2.97;;;;;;;;;;5119912;28;20275;-65
2023/06/08 10:32:36;;;;;;;4.77;3.93;;;;;;;;;;5120122;28;20210;-65
2023/06/08 10:35:07;;;;;;;5.30;3.30;;;;;;;;;;5119567;28;20662;-65
2023/06/08 10:37:37;;;;;;;3.27;2.90;;;;;;;;;;5116719;28;20290;-64
2023/06/08 10:40:08;;;;;;;4.33;3.20;;;;;;;;;;5119379;28;20209;-64
2023/06/08 10:42:37;;;;;;;5.10;3.50;;;;;;;;;;5119916;27;20289;-64
2023/06/08 10:45:06;;;;;;;4.17;3.20;;;;;;;;;;5118054;27;20200;-64
2023/06/08 10:47:37;;;;;;;2.77;2.57;;;;;;;;;;5123830;27;20209;-63
2023/06/08 10:50:10;;;;;;;3.83;3.00;;;;;;;;;;5135598;27;20244;-64
2023/06/08 10:52:42;;;;;;;4.33;2.80;;;;;;;;;;5119391;28;20243;-65
2023/06/08 10:55:12;;;;;;;5.07;3.17;;;;;;;;;;5118922;28;20249;-65
2023/06/08 10:57:42;;;;;;;4.20;3.17;;;;;;;;;;5119061;28;20208;-62
2023/06/08 11:00:27;;;;;;;10.23;4.00;;;;;;;;;;5119613;28;20218;-65
2023/06/08 11:02:56;;;;;;;3.23;2.93;;;;;;;;;;5107768;28;20230;-63
2023/06/08 11:05:29;;;;;;;3.53;2.97;;;;;;;;;;5119214;28;20221;-63
2023/06/08 11:07:59;;;;;;;4.30;2.70;;;;;;;;;;5119378;28;20211;-63
2023/06/08 11:10:27;;;;;;;3.40;2.97;;;;;;;;;;5119149;28;20241;-63
2023/06/08 11:12:55;;;;;;;3.53;2.67;;;;;;;;;;5119146;28;20202;-64
2023/06/08 11:15:25;;;;;;;4.90;3.57;;;;;;;;;;5118905;28;20229;-70
2023/06/08 11:17:56;;;;;;;4.40;3.07;;;;;;;;;;5119196;28;20210;-68
2023/06/08 11:20:25;;;;;;;3.67;3.13;;;;;;;;;;5113917;28;20649;-66
2023/06/08 11:22:55;;;;;;;3.87;2.80;;;;;;;;;;5118633;28;20347;-68
2023/06/08 11:25:23;;;;;;;2.93;2.50;;;;;;;;;;5118974;28;20231;-70
2023/06/08 11:27:57;;;;;;;4.27;3.07;;;;;;;;;;5132912;27;20228;-68
2023/06/08 11:30:26;;;;;;;3.23;2.73;;;;;;;;;;5139672;27;20213;-67
2023/06/08 11:32:55;;;;;;;2.97;2.67;;;;;;;;;;5139486;27;20283;-68
2023/06/08 11:35:23;;;;;;;2.60;2.40;;;;;;;;;;5139469;27;20231;-70
2023/06/08 11:37:52;;;;;;;7.23;3.20;;;;;;;;;;5139147;27;20226;-70
2023/06/08 11:40:22;;;;;;;3.57;3.27;;;;;;;;;;5138928;27;20569;-68
2023/06/08 11:42:51;;;;;;;5.03;3.50;;;;;;;;;;5139130;27;20298;-64
2023/06/08 11:45:20;;;;;;;3.33;2.93;;;;;;;;;;5139211;27;20226;-67
2023/06/08 11:47:48;;;;;;;4.37;2.60;;;;;;;;;;5121891;27;20210;-67
2023/06/08 11:50:37;;;;;;;4.77;3.03;;;;;;;;;;5126031;27;20203;-67
2023/06/08 11:53:05;;;;;;;3.53;3.10;;;;;;;;;;5128973;27;20326;-66
2023/06/08 11:55:38;;;;;;;6.87;2.73;;;;;;;;;;5132434;27;20601;-67
2023/06/08 11:58:10;;;;;;;3.40;2.80;;;;;;;;;;5118356;28;20288;-68
2023/06/08 12:00:39;;;;;;;3.67;2.83;;;;;;;;;;5118287;28;20287;-63
2023/06/08 12:03:09;;;;;;;5.33;2.90;;;;;;;;;;5118264;28;20639;-64
2023/06/08 12:05:38;;;;;;;2.93;2.63;;;;;;;;;;5118125;28;20264;-64
2023/06/08 12:08:10;;;;;;;6.27;2.93;;;;;;;;;;5118214;28;20208;-64
2023/06/08 12:10:41;;;;;;;3.10;2.90;;;;;;;;;;5117543;28;20207;-64
2023/06/08 12:13:10;;;;;;;6.23;3.17;;;;;;;;;;5118395;28;20238;-63
2023/06/08 12:15:42;;;;;;;4.00;3.60;;;;;;;;;;5117923;28;20615;-64
2023/06/08 12:18:10;;;;;;;3.33;3.03;;;;;;;;;;5118050;28;20227;-64
2023/06/08 12:20:39;;;;;;;4.00;3.00;;;;;;;;;;5118346;28;20203;-63
2023/06/08 12:23:07;;;;;;;4.80;3.07;;;;;;;;;;5118166;28;20239;-65
2023/06/08 12:25:37;;;;;;;3.40;3.10;;;;;;;;;;5117776;28;20225;-63
2023/06/08 12:28:16;;;;;;;4.30;3.03;;;;;;;;;;5118080;28;20228;-64
2023/06/08 12:30:45;;;;;;;7.33;3.20;;;;;;;;;;5118199;28;20288;-64
2023/06/08 12:33:17;;;;;;;3.83;3.27;;;;;;;;;;5118033;28;20212;-63
2023/06/08 12:35:46;;;;;;;3.30;2.97;;;;;;;;;;5116606;28;20270;-64
2023/06/08 12:38:14;;;;;;;4.47;3.23;;;;;;;;;;5105119;28;20223;-64
2023/06/08 12:40:47;;;;;;;5.80;2.80;;;;;;;;;;5117654;28;20211;-64
2023/06/08 12:43:18;;;;;;;2.87;2.67;;;;;;;;;;5118243;28;20242;-64
2023/06/08 12:45:46;;;;;;;3.70;2.90;;;;;;;;;;5118020;28;20224;-64
2023/06/08 12:48:14;;;;;;;4.30;2.93;;;;;;;;;;5118117;28;20256;-64
2023/06/08 12:50:42;;;;;;;3.07;2.80;;;;;;;;;;5118077;28;20208;-64
2023/06/08 12:53:11;;;;;;;3.20;2.83;;;;;;;;;;5117625;28;20243;-64
2023/06/08 12:55:39;;;;;;;4.87;2.97;;;;;;;;;;5117274;28;20230;-63
2023/06/08 12:58:07;;;;;;;7.70;2.77;;;;;;;;;;5117746;28;20232;-63
2023/06/08 13:00:37;;;;;;;3.10;2.80;;;;;;;;;;5117702;28;20212;-64
2023/06/08 13:03:07;;;;;;;3.50;3.20;;;;;;;;;;5117792;28;20605;-64
2023/06/08 13:05:36;;;;;;;2.95;2.72;;;;;;;;;;5117834;28;20266;-64
2023/06/08 13:08:06;;;;;;;3.00;2.80;;;;;;;;;;5110015;28;20286;-64
2023/06/08 13:10:35;;;;;;;2.65;2.45;;;;;;;;;;5104082;28;20214;-65
2023/06/08 13:13:03;;;;;;;4.72;3.08;;;;;;;;;;5117773;28;20240;-64
2023/06/08 13:15:31;;;;;;;4.28;3.05;;;;;;;;;;5117981;28;20592;-63
2023/06/08 13:18:02;;;;;;;6.40;3.25;;;;;;;;;;5117716;28;20237;-62
2023/06/08 13:20:30;;;;;;;8.35;3.13;;;;;;;;;;5119075;28;20211;-64
2023/06/08 13:22:58;;;;;;;3.35;2.88;;;;;;;;;;5121372;28;20208;-64
2023/06/08 13:25:27;;;;;;;3.20;2.88;;;;;;;;;;5120938;28;20768;-64
2023/06/08 13:27:56;;;;;;;4.03;3.25;;;;;;;;;;5118093;28;20206;-63
2023/06/08 13:30:24;;;;;;;3.97;2.50;;;;;;;;;;5121410;28;20238;-64
2023/06/08 13:32:59;;;;;;;3.08;2.70;;;;;;;;;;5121346;28;20205;-65
2023/06/08 13:35:30;;;;;;;5.82;2.90;;;;;;;;;;5121119;28;20317;-65
2023/06/08 13:37:58;;;;;;;2.90;2.70;;;;;;;;;;5120870;28;20230;-64
2023/06/08 13:40:31;;;;;;;2.80;2.58;;;;;;;;;;5120641;27;20662;-65
2023/06/08 13:43:00;;;;;;;3.42;2.53;;;;;;;;;;5120846;28;20703;-64
2023/06/08 13:45:29;;;;;;;3.15;2.85;;;;;;;;;;5120804;28;20265;-64
2023/06/08 13:47:58;;;;;;;2.85;2.65;;;;;;;;;;5121110;28;20287;-62
2023/06/08 13:50:27;;;;;;;3.03;2.50;;;;;;;;;;5120674;28;20209;-65
2023/06/08 13:52:57;;;;;;;3.92;2.42;;;;;;;;;;5120493;28;20239;-64
2023/06/08 13:55:26;;;;;;;3.28;2.60;;;;;;;;;;5120468;27;20232;-64
2023/06/08 13:57:55;;;;;;;3.58;3.08;;;;;;;;;;5120642;28;20318;-64
2023/06/08 14:00:23;;;;;;;2.85;2.65;;;;;;;;;;5120494;28;20211;-64
2023/06/08 14:02:51;;;;;;;3.63;2.75;;;;;;;;;;5120759;28;20206;-65
2023/06/08 14:05:20;;;;;;;14.68;4.03;;;;;;;;;;5120723;28;20224;-64
2023/06/08 14:07:49;;;;;;;9.75;3.90;;;;;;;;;;5120479;28;20565;-64
2023/06/08 14:10:19;;;;;;;28.00;5.75;;;;;;;;;;5120327;28;20203;-63
2023/06/08 14:12:48;;;;;;;31.80;5.93;;;;;;;;;;5120380;28;20752;-64
2023/06/08 14:15:17;;;;;;;2.95;2.70;;;;;;;;;;5120192;28;20757;-64
2023/06/08 14:17:45;;;;;;;3.80;2.47;;;;;;;;;;5120198;28;20224;-64
2023/06/08 14:20:13;;;;;;;3.17;2.97;;;;;;;;;;5120477;28;20207;-64
2023/06/08 14:22:42;;;;;;;3.53;2.70;;;;;;;;;;5120298;28;20722;-65
2023/06/08 14:25:10;;;;;;;2.95;2.70;;;;;;;;;;5119779;28;20576;-64
2023/06/08 14:27:40;;;;;;;4.72;2.25;;;;;;;;;;5110247;28;20200;-63
2023/06/08 14:30:08;;;;;;;3.20;2.22;;;;;;;;;;5120159;28;20613;-64
2023/06/08 14:32:37;;;;;;;2.95;2.75;;;;;;;;;;5119402;28;20201;-64
2023/06/08 14:35:06;;;;;;;4.78;2.70;;;;;;;;;;5120239;28;20295;-64
2023/06/08 14:37:35;;;;;;;2.50;2.38;;;;;;;;;;5119985;28;20232;-64
2023/06/08 14:40:04;;;;;;;4.22;2.58;;;;;;;;;;5119502;28;20276;-64
2023/06/08 14:42:33;;;;;;;4.60;3.10;;;;;;;;;;5119959;28;20236;-65
2023/06/08 14:45:02;;;;;;;3.70;3.10;;;;;;;;;;5119907;28;20273;-65
2023/06/08 14:47:30;;;;;;;3.97;2.80;;;;;;;;;;5119941;28;20204;-64
2023/06/08 14:49:58;;;;;;;3.45;3.15;;;;;;;;;;5119575;28;20673;-64
2023/06/08 14:52:27;;;;;;;2.95;2.75;;;;;;;;;;5119292;28;20208;-64
2023/06/08 14:54:55;;;;;;;4.28;2.60;;;;;;;;;;5119065;28;20208;-65
2023/06/08 14:57:23;;;;;;;3.10;2.90;;;;;;;;;;5118373;28;20310;-65